createdAt,value
2023-05-11T00:01:09.932Z,6.90
2023-05-11T00:03:36.527Z,6.20
2023-05-11T00:06:03.323Z,7.32
2023-05-11T00:08:29.934Z,6.03
2023-05-11T00:10:56.461Z,6.80
2023-05-11T00:13:23.072Z,7.20
2023-05-11T00:15:49.860Z,8.05
2023-05-11T00:18:16.529Z,7.53
2023-05-11T00:20:43.104Z,7.93
2023-05-11T00:23:09.901Z,7.43
2023-05-11T00:25:36.336Z,6.70
2023-05-11T00:28:02.860Z,6.68
2023-05-11T00:30:29.377Z,7.88
2023-05-11T00:32:55.938Z,7.75
2023-05-11T00:35:22.661Z,7.43
2023-05-11T00:37:49.117Z,7.05
2023-05-11T00:40:16.278Z,6.78
2023-05-11T00:42:43.111Z,6.90
2023-05-11T00:45:09.826Z,5.93
2023-05-11T00:47:36.350Z,7.00
2023-05-11T00:50:02.989Z,7.72
2023-05-11T00:52:30.038Z,6.30
2023-05-11T00:54:56.685Z,6.65
2023-05-11T00:57:23.192Z,6.85
2023-05-11T00:59:50.095Z,7.03
2023-05-11T01:02:17.636Z,7.50
2023-05-11T01:04:44.934Z,6.82
2023-05-11T01:07:32.528Z,7.75
2023-05-11T01:10:10.935Z,7.53
2023-05-11T01:12:58.817Z,7.83
2023-05-11T01:15:40.639Z,7.95
2023-05-11T01:18:18.325Z,8.90
2023-05-11T01:20:48.108Z,8.85
2023-05-11T01:23:23.359Z,7.43
2023-05-11T01:26:09.208Z,7.17
2023-05-11T01:29:13.818Z,8.82
2023-05-11T01:31:47.113Z,8.23
2023-05-11T01:34:18.123Z,8.07
2023-05-11T01:36:51.997Z,9.38
2023-05-11T01:39:25.040Z,7.80
2023-05-11T01:41:55.712Z,7.63
2023-05-11T01:44:29.471Z,8.55
2023-05-11T01:46:57.632Z,9.30
2023-05-11T01:49:24.906Z,8.30
2023-05-11T01:51:53.723Z,8.70
2023-05-11T01:54:21.600Z,9.55
2023-05-11T01:56:50.064Z,8.52
2023-05-11T01:59:19.035Z,7.32
2023-05-11T02:01:46.264Z,7.85
2023-05-11T02:04:14.900Z,8.20
2023-05-11T02:06:43.615Z,7.95
2023-05-11T02:09:12.698Z,8.93
2023-05-11T02:11:42.854Z,7.88
2023-05-11T02:14:11.046Z,8.15
2023-05-11T02:16:39.043Z,8.23
2023-05-11T02:19:08.296Z,8.50
2023-05-11T02:21:36.710Z,8.35
2023-05-11T02:24:06.388Z,8.30
2023-05-11T02:26:33.217Z,8.60
2023-05-11T02:29:00.174Z,8.97
2023-05-11T02:31:32.602Z,7.35
2023-05-11T02:34:09.846Z,7.88
2023-05-11T02:36:38.650Z,8.07
2023-05-11T02:39:09.793Z,8.38
2023-05-11T02:41:41.879Z,8.50
2023-05-11T02:44:11.442Z,9.32
2023-05-11T02:46:40.226Z,8.50
2023-05-11T02:49:11.102Z,7.72
2023-05-11T02:51:39.716Z,7.80
2023-05-11T02:54:11.038Z,8.17
2023-05-11T02:56:39.147Z,8.10
2023-05-11T02:59:06.409Z,9.40
2023-05-11T03:01:33.550Z,9.15
2023-05-11T03:04:00.242Z,8.85
2023-05-11T03:06:26.923Z,8.10
2023-05-11T03:08:53.458Z,9.23
2023-05-11T03:11:21.563Z,7.60
2023-05-11T03:13:48.450Z,8.57
2023-05-11T03:16:17.442Z,6.97
2023-05-11T03:18:45.616Z,7.10
2023-05-11T03:21:14.834Z,8.10
2023-05-11T03:23:41.850Z,8.73
2023-05-11T03:26:09.717Z,7.88
2023-05-11T03:28:37.823Z,7.57
2023-05-11T03:31:04.470Z,7.60
2023-05-11T03:33:31.821Z,8.65
2023-05-11T03:35:58.983Z,7.93
2023-05-11T03:38:29.460Z,8.43
2023-05-11T03:40:57.865Z,8.30
2023-05-11T03:43:27.501Z,8.73
2023-05-11T03:45:56.044Z,8.20
2023-05-11T03:48:23.359Z,9.38
2023-05-11T03:50:50.658Z,8.35
2023-05-11T03:53:17.572Z,8.30
2023-05-11T03:55:44.291Z,7.27
2023-05-11T03:58:11.697Z,8.80
2023-05-11T04:00:41.833Z,9.07
2023-05-11T04:03:09.764Z,9.20
2023-05-11T04:05:36.468Z,8.75
2023-05-11T04:08:04.819Z,8.13
2023-05-11T04:10:31.329Z,8.32
2023-05-11T04:12:58.126Z,7.43
2023-05-11T04:15:24.580Z,8.32
2023-05-11T04:17:51.019Z,8.18
2023-05-11T04:20:17.967Z,8.60
2023-05-11T04:22:44.745Z,7.32
2023-05-11T04:25:11.516Z,9.60
2023-05-11T04:27:37.979Z,8.38
2023-05-11T04:30:05.456Z,8.35
2023-05-11T04:32:32.302Z,8.27
2023-05-11T04:34:59.468Z,8.95
2023-05-11T04:37:26.332Z,9.38
2023-05-11T04:39:53.023Z,8.63
2023-05-11T04:42:19.531Z,8.57
2023-05-11T04:44:46.093Z,9.23
2023-05-11T04:47:12.592Z,8.88
2023-05-11T04:49:40.171Z,9.10
2023-05-11T04:52:06.645Z,9.13
2023-05-11T04:54:33.628Z,9.50
2023-05-11T04:57:00.151Z,10.30
2023-05-11T04:59:26.855Z,9.85
2023-05-11T05:01:53.593Z,8.95
2023-05-11T05:04:20.316Z,8.75
2023-05-11T05:06:46.806Z,9.15
2023-05-11T05:09:13.328Z,9.30
2023-05-11T05:11:39.835Z,9.85
2023-05-11T05:14:06.333Z,8.95
2023-05-11T05:16:33.216Z,10.20
2023-05-11T05:19:00.051Z,8.52
2023-05-11T05:21:26.665Z,9.07
2023-05-11T05:23:53.208Z,8.38
2023-05-11T05:26:19.696Z,9.98
2023-05-11T05:28:46.188Z,8.73
2023-05-11T05:31:12.830Z,10.48
2023-05-11T05:33:39.554Z,9.80
2023-05-11T05:36:06.201Z,9.95
2023-05-11T05:38:32.774Z,10.32
2023-05-11T05:41:00.058Z,8.48
2023-05-11T05:43:26.699Z,9.40
2023-05-11T05:45:53.476Z,8.60
2023-05-11T05:48:20.116Z,7.95
2023-05-11T05:50:47.074Z,8.80
2023-05-11T05:53:13.818Z,8.18
2023-05-11T05:55:40.460Z,7.88
2023-05-11T05:58:06.961Z,9.50
2023-05-11T06:00:34.392Z,8.85
2023-05-11T06:03:01.005Z,9.00
2023-05-11T06:05:27.689Z,8.35
2023-05-11T06:08:08.429Z,7.63
2023-05-11T06:10:36.285Z,8.60
2023-05-11T06:13:02.872Z,9.18
2023-05-11T06:15:29.501Z,8.55
2023-05-11T06:17:56.362Z,8.80
2023-05-11T06:20:24.337Z,7.63
2023-05-11T06:22:53.056Z,8.20
2023-05-11T06:25:20.120Z,7.32
2023-05-11T06:27:46.604Z,7.97
2023-05-11T06:30:13.724Z,7.78
2023-05-11T06:32:40.258Z,8.00
2023-05-11T06:35:07.578Z,8.03
2023-05-11T06:37:35.495Z,8.60
2023-05-11T06:40:02.357Z,7.43
2023-05-11T06:42:28.860Z,7.93
2023-05-11T06:44:55.604Z,8.13
2023-05-11T06:47:22.205Z,7.37
2023-05-11T06:49:48.992Z,8.27
2023-05-11T06:52:17.988Z,7.10
2023-05-11T06:54:44.573Z,6.90
2023-05-11T06:57:12.742Z,7.78
2023-05-11T06:59:41.038Z,7.00
2023-05-11T07:02:07.606Z,8.27
2023-05-11T07:04:34.053Z,9.15
2023-05-11T07:07:00.591Z,9.65
2023-05-11T07:09:27.063Z,10.10
2023-05-11T07:11:53.709Z,8.13
2023-05-11T07:14:20.146Z,9.10
2023-05-11T07:16:46.747Z,10.18
2023-05-11T07:19:13.872Z,10.52
2023-05-11T07:21:40.538Z,9.57
2023-05-11T07:24:07.084Z,9.70
2023-05-11T07:26:33.659Z,8.75
2023-05-11T07:29:00.119Z,8.43
2023-05-11T07:31:26.724Z,6.03
2023-05-11T07:33:53.529Z,6.18
2023-05-11T07:36:20.063Z,5.63
2023-05-11T07:38:46.610Z,6.07
2023-05-11T07:41:13.135Z,4.80
2023-05-11T07:43:40.122Z,5.38
2023-05-11T07:46:07.433Z,4.60
2023-05-11T07:48:33.890Z,4.80
2023-05-11T07:51:01.548Z,4.88
2023-05-11T07:53:28.018Z,4.10
2023-05-11T07:55:54.466Z,4.18
2023-05-11T07:58:21.080Z,4.43
2023-05-11T08:00:47.480Z,4.10
2023-05-11T08:03:14.594Z,4.38
2023-05-11T08:05:41.276Z,4.60
2023-05-11T08:08:07.931Z,4.65
2023-05-11T08:10:36.243Z,4.55
2023-05-11T08:13:02.728Z,4.40
2023-05-11T08:15:29.477Z,4.43
2023-05-11T08:17:56.225Z,4.32
2023-05-11T08:20:23.134Z,4.40
2023-05-11T08:22:50.856Z,4.32
2023-05-11T08:25:18.016Z,4.20
2023-05-11T08:27:44.712Z,4.68
2023-05-11T08:30:12.141Z,3.95
2023-05-11T08:32:54.615Z,4.03
2023-05-11T08:35:24.843Z,3.80
2023-05-11T08:37:51.427Z,4.57
2023-05-11T08:40:20.376Z,4.45
2023-05-11T08:42:48.981Z,4.18
2023-05-11T08:45:15.943Z,3.97
2023-05-11T08:47:42.765Z,3.50
2023-05-11T08:50:09.445Z,4.20
2023-05-11T08:52:35.860Z,3.90
2023-05-11T08:55:02.336Z,3.97
2023-05-11T08:57:32.263Z,3.95
2023-05-11T09:00:01.701Z,4.63
2023-05-11T09:02:28.792Z,3.67
2023-05-11T09:04:56.204Z,3.78
2023-05-11T09:07:24.770Z,3.97
2023-05-11T09:09:51.216Z,3.83
2023-05-11T09:12:17.974Z,4.63
2023-05-11T09:14:44.856Z,3.70
2023-05-11T09:17:11.474Z,3.90
2023-05-11T09:19:56.958Z,3.38
2023-05-11T09:22:23.454Z,3.63
2023-05-11T09:24:50.252Z,3.10
2023-05-11T09:27:21.146Z,4.00
2023-05-11T09:29:51.988Z,4.55
2023-05-11T09:32:18.656Z,4.75
2023-05-11T09:34:45.122Z,6.15
2023-05-11T09:37:17.530Z,6.30
2023-05-11T09:42:21.646Z,6.80
2023-05-11T09:44:48.689Z,6.72
2023-05-11T09:47:18.123Z,7.53
2023-05-11T09:49:45.742Z,6.13
2023-05-11T09:52:17.148Z,6.70
2023-05-11T09:54:49.957Z,6.25
2023-05-11T09:57:24.857Z,6.60
2023-05-11T09:59:52.447Z,7.13
2023-05-11T10:02:21.597Z,6.82
2023-05-11T10:04:49.905Z,6.87
2023-05-11T10:07:34.425Z,6.75
2023-05-11T10:10:02.930Z,6.40
2023-05-11T10:12:31.126Z,7.10
2023-05-11T10:15:10.713Z,7.22
2023-05-11T10:17:37.907Z,6.80
2023-05-11T10:20:06.559Z,7.22
2023-05-11T10:22:33.678Z,10.43
2023-05-11T10:25:00.785Z,10.80
2023-05-11T10:27:27.931Z,11.63
2023-05-11T10:29:54.784Z,11.87
2023-05-11T10:32:21.632Z,11.05
2023-05-11T10:34:48.511Z,11.77
2023-05-11T10:37:17.051Z,11.95
2023-05-11T10:39:47.754Z,11.07
2023-05-11T10:42:21.618Z,11.07
2023-05-11T10:44:56.112Z,9.98
2023-05-11T10:47:28.741Z,10.13
2023-05-11T10:50:07.782Z,8.98
2023-05-11T10:52:55.892Z,8.65
2023-05-11T10:55:35.287Z,7.90
2023-05-11T10:58:12.844Z,6.63
2023-05-11T11:01:18.894Z,6.38
2023-05-11T11:03:59.588Z,6.82
2023-05-11T11:06:26.142Z,6.28
2023-05-11T11:09:00.155Z,6.37
2023-05-11T11:11:39.919Z,5.93
2023-05-11T11:14:11.441Z,6.40
2023-05-11T11:16:39.097Z,7.32
2023-05-11T11:19:30.784Z,6.32
2023-05-11T11:22:01.382Z,6.10
2023-05-11T11:24:37.410Z,5.70
2023-05-11T11:27:11.124Z,5.95
2023-05-11T11:29:42.591Z,6.50
2023-05-11T11:32:24.436Z,5.93
2023-05-11T11:34:51.514Z,5.87
2023-05-11T11:37:18.894Z,5.95
2023-05-11T11:39:49.878Z,6.57
2023-05-11T11:42:32.421Z,6.53
2023-05-11T11:45:27.946Z,7.10
2023-05-11T11:48:36.324Z,6.30
2023-05-11T11:51:06.177Z,6.38
2023-05-11T11:53:41.996Z,5.88
2023-05-11T11:56:28.695Z,7.13
2023-05-11T11:59:00.443Z,6.82
2023-05-11T12:01:29.711Z,7.03
2023-05-11T12:04:05.743Z,7.32
2023-05-11T12:06:41.109Z,6.40
2023-05-11T12:09:08.394Z,7.22
2023-05-11T12:11:35.189Z,6.53
2023-05-11T12:14:02.515Z,7.00
2023-05-11T12:16:29.589Z,6.70
2023-05-11T12:19:01.135Z,6.90
2023-05-11T12:21:33.125Z,6.78
2023-05-11T12:24:09.111Z,7.07
2023-05-11T12:26:35.841Z,7.33
2023-05-11T12:29:09.765Z,6.40
2023-05-11T12:31:37.449Z,6.45
2023-05-11T12:34:04.122Z,5.90
2023-05-11T12:36:31.829Z,6.60
2023-05-11T12:38:59.270Z,6.07
2023-05-11T12:41:26.008Z,6.80
2023-05-11T12:43:54.115Z,7.35
2023-05-11T12:46:21.826Z,7.72
2023-05-11T12:48:49.635Z,7.15
2023-05-11T12:51:46.884Z,7.03
2023-05-11T12:54:27.656Z,7.75
2023-05-11T12:56:54.195Z,7.68
2023-05-11T12:59:44.070Z,6.88
2023-05-11T13:02:14.986Z,7.30
2023-05-11T13:04:42.571Z,7.63
2023-05-11T13:07:10.024Z,6.88
2023-05-11T13:09:37.232Z,7.10
2023-05-11T13:12:17.620Z,7.38
2023-05-11T13:14:49.730Z,6.43
2023-05-11T13:17:33.676Z,6.77
2023-05-11T13:20:26.108Z,7.65
2023-05-11T13:23:13.393Z,6.82
2023-05-11T13:25:49.043Z,7.30
2023-05-11T13:28:17.380Z,6.57
2023-05-11T13:30:44.881Z,5.23
2023-05-11T13:33:11.636Z,5.47
2023-05-11T13:35:39.163Z,4.90
2023-05-11T13:38:05.851Z,2.03
2023-05-11T13:40:32.635Z,1.58
2023-05-11T13:43:01.955Z,1.20
2023-05-11T13:45:28.819Z,1.40
2023-05-11T13:47:56.778Z,1.98
2023-05-11T13:50:24.547Z,1.60
2023-05-11T13:52:51.786Z,1.70
2023-05-11T13:55:18.647Z,1.57
2023-05-11T13:57:45.805Z,1.90
2023-05-11T14:00:13.022Z,2.08
2023-05-11T14:02:39.574Z,1.50
2023-05-11T14:05:06.991Z,1.40
2023-05-11T14:07:45.739Z,1.60
2023-05-11T14:10:13.956Z,1.50
2023-05-11T14:12:41.059Z,1.65
2023-05-11T14:15:08.191Z,1.42
2023-05-11T14:17:35.914Z,1.40
2023-05-11T14:20:02.863Z,1.77
2023-05-11T14:22:29.498Z,1.42
2023-05-11T14:24:56.305Z,1.75
2023-05-11T14:27:23.233Z,1.90
2023-05-11T14:29:52.030Z,1.73
2023-05-11T14:32:21.625Z,1.80
2023-05-11T14:34:48.728Z,1.70
2023-05-11T14:37:15.438Z,1.95
2023-05-11T14:39:41.810Z,1.80
2023-05-11T14:42:08.845Z,1.65
2023-05-11T14:44:35.382Z,1.93
2023-05-11T14:47:01.920Z,2.10
2023-05-11T14:49:28.790Z,1.83
2023-05-11T14:51:55.437Z,1.77
2023-05-11T14:54:22.025Z,2.30
2023-05-11T14:56:53.956Z,2.10
2023-05-11T14:59:21.460Z,2.08
2023-05-11T15:01:49.636Z,2.13
2023-05-11T15:04:17.032Z,2.33
2023-05-11T15:06:43.914Z,2.38
2023-05-11T15:09:10.636Z,2.30
2023-05-11T15:11:40.017Z,2.25
2023-05-11T15:14:09.622Z,2.25
2023-05-11T15:16:37.444Z,2.13
2023-05-11T15:19:05.868Z,2.40
2023-05-11T15:21:32.572Z,2.50
2023-05-11T15:23:59.207Z,2.70
2023-05-11T15:26:26.077Z,2.20
2023-05-11T15:28:52.695Z,1.95
2023-05-11T15:31:19.328Z,2.05
2023-05-11T15:33:46.026Z,1.97
2023-05-11T15:36:14.227Z,1.60
2023-05-11T15:38:43.259Z,2.10
2023-05-11T15:41:09.800Z,1.48
2023-05-11T15:43:36.357Z,1.48
2023-05-11T15:46:04.015Z,1.10
2023-05-11T15:48:30.603Z,1.30
2023-05-11T15:50:59.778Z,1.08
2023-05-11T15:53:26.771Z,1.00
2023-05-11T15:55:55.370Z,1.08
2023-05-11T15:58:22.139Z,0.87
2023-05-11T16:00:49.207Z,0.70
2023-05-11T16:03:15.981Z,1.00
2023-05-11T16:05:42.525Z,1.20
2023-05-11T16:08:09.011Z,1.40
2023-05-11T16:10:35.530Z,1.70
2023-05-11T16:13:09.556Z,1.70
2023-05-11T16:15:36.269Z,1.80
2023-05-11T16:18:04.894Z,1.98
2023-05-11T16:20:32.352Z,1.60
2023-05-11T16:23:01.812Z,1.43
2023-05-11T16:25:28.276Z,1.35
2023-05-11T16:27:54.732Z,1.13
2023-05-11T16:30:25.365Z,1.13
2023-05-11T16:32:53.263Z,0.85
2023-05-11T16:35:20.301Z,1.20
2023-05-11T16:37:48.235Z,0.93
2023-05-11T16:40:14.942Z,1.17
2023-05-11T16:42:50.262Z,1.20
2023-05-11T16:45:17.020Z,1.55
2023-05-11T16:47:46.707Z,1.73
2023-05-11T16:50:14.708Z,1.77
2023-05-11T16:52:42.415Z,1.83
2023-05-11T16:55:09.525Z,2.10
2023-05-11T16:57:36.061Z,1.63
2023-05-11T17:00:03.053Z,2.10
2023-05-11T17:02:29.835Z,2.58
2023-05-11T17:04:56.611Z,2.38
2023-05-11T17:07:23.059Z,2.22
2023-05-11T17:09:52.262Z,2.10
2023-05-11T17:12:18.664Z,2.40
2023-05-11T17:14:45.068Z,3.10
2023-05-11T17:17:11.612Z,1.83
2023-05-11T17:19:38.429Z,1.70
2023-05-11T17:22:05.159Z,0.80
2023-05-11T17:24:31.677Z,0.67
2023-05-11T17:27:01.169Z,0.75
2023-05-11T17:29:27.653Z,0.55
2023-05-11T17:31:54.381Z,0.50
2023-05-11T17:34:23.653Z,0.50
2023-05-11T17:36:52.366Z,0.50
2023-05-11T17:39:19.956Z,0.50
2023-05-11T17:41:47.347Z,0.60
2023-05-11T17:44:13.792Z,0.70
2023-05-11T17:46:40.454Z,0.50
2023-05-11T17:49:07.999Z,0.43
2023-05-11T17:51:34.585Z,0.68
2023-05-11T17:54:01.227Z,0.47
2023-05-11T17:56:27.643Z,0.50
2023-05-11T17:58:54.801Z,0.40
2023-05-11T18:01:22.672Z,0.60
2023-05-11T18:03:49.574Z,1.10
2023-05-11T18:06:16.653Z,1.17
2023-05-11T18:08:43.990Z,1.80
2023-05-11T18:11:12.701Z,1.60
2023-05-11T18:13:45.749Z,2.00
2023-05-11T18:16:12.329Z,1.80
2023-05-11T18:18:38.890Z,1.95
2023-05-11T18:21:06.668Z,1.40
2023-05-11T18:23:33.849Z,1.77
2023-05-11T18:26:00.508Z,2.87
2023-05-11T18:28:32.427Z,2.55
2023-05-11T18:30:58.975Z,1.90
2023-05-11T18:33:25.466Z,1.98
2023-05-11T18:35:52.175Z,2.03
2023-05-11T18:38:18.610Z,1.77
2023-05-11T18:40:45.428Z,1.90
2023-05-11T18:43:12.488Z,1.80
2023-05-11T18:45:40.965Z,1.70
2023-05-11T18:48:07.570Z,1.80
2023-05-11T18:50:34.196Z,1.60
2023-05-11T18:53:02.089Z,2.03
2023-05-11T18:55:30.804Z,1.73
2023-05-11T18:57:58.060Z,2.20
2023-05-11T19:00:24.814Z,1.92
2023-05-11T19:02:52.054Z,2.10
2023-05-11T19:05:18.755Z,2.00
2023-05-11T19:07:45.324Z,2.28
2023-05-11T19:10:11.872Z,2.35
2023-05-11T19:12:38.512Z,2.33
2023-05-11T19:15:06.282Z,2.60
2023-05-11T19:17:33.662Z,2.78
2023-05-11T19:20:00.203Z,2.47
2023-05-11T19:22:26.651Z,2.45
2023-05-11T19:24:53.038Z,2.60
2023-05-11T19:27:19.518Z,2.27
2023-05-11T19:29:49.117Z,2.55
2023-05-11T19:32:15.639Z,2.65
2023-05-11T19:34:42.050Z,2.63
2023-05-11T19:37:09.510Z,2.92
2023-05-11T19:39:36.269Z,2.57
2023-05-11T19:42:02.810Z,3.30
2023-05-11T19:44:33.086Z,2.92
2023-05-11T19:46:59.796Z,3.13
2023-05-11T19:49:26.303Z,2.80
2023-05-11T19:51:53.122Z,3.50
2023-05-11T19:54:19.545Z,2.85
2023-05-11T19:56:46.752Z,3.00
2023-05-11T19:59:13.346Z,3.72
2023-05-11T20:01:39.840Z,3.80
2023-05-11T20:04:06.236Z,3.20
2023-05-11T20:06:33.419Z,3.90
2023-05-11T20:09:00.047Z,4.28
2023-05-11T20:11:26.752Z,4.68
2023-05-11T20:13:53.818Z,3.72
2023-05-11T20:16:20.406Z,3.70
2023-05-11T20:18:47.277Z,4.43
2023-05-11T20:21:13.868Z,4.72
2023-05-11T20:23:40.378Z,4.60
2023-05-11T20:26:06.940Z,4.50
2023-05-11T20:28:33.461Z,4.37
2023-05-11T20:31:00.120Z,4.32
2023-05-11T20:35:56.207Z,2.90
2023-05-11T20:38:22.610Z,2.47
2023-05-11T20:40:49.068Z,1.87
2023-05-11T20:43:16.417Z,1.60
2023-05-11T20:45:44.671Z,1.65
2023-05-11T20:48:11.207Z,1.70
2023-05-11T20:50:39.249Z,1.70
2023-05-11T20:53:06.112Z,2.00
2023-05-11T20:55:32.541Z,1.63
2023-05-11T20:57:59.170Z,1.63
2023-05-11T21:00:25.818Z,1.65
2023-05-11T21:02:52.710Z,1.80
2023-05-11T21:05:19.360Z,1.80
2023-05-11T21:07:46.002Z,1.90
2023-05-11T21:10:14.115Z,2.00
2023-05-11T21:12:40.774Z,2.75
2023-05-11T21:15:07.733Z,2.60
2023-05-11T21:17:34.453Z,3.27
2023-05-11T21:20:02.359Z,2.88
2023-05-11T21:22:28.979Z,2.92
2023-05-11T21:24:55.393Z,2.97
2023-05-11T21:27:21.820Z,2.70
2023-05-11T21:29:48.520Z,3.57
2023-05-11T21:32:15.077Z,4.07
2023-05-11T21:34:44.863Z,3.05
2023-05-11T21:37:14.487Z,3.38
2023-05-11T21:39:41.536Z,3.15
2023-05-11T21:42:07.947Z,2.97
2023-05-11T21:44:34.423Z,2.53
2023-05-11T21:47:00.887Z,2.72
2023-05-11T21:49:27.398Z,2.67
2023-05-11T21:51:53.860Z,3.08
2023-05-11T21:54:22.522Z,2.67
2023-05-11T21:56:49.926Z,2.35
2023-05-11T21:59:17.117Z,2.55
2023-05-11T22:01:43.581Z,2.80
2023-05-11T22:04:10.925Z,2.53
2023-05-11T22:06:37.836Z,2.87
2023-05-11T22:09:04.756Z,2.75
2023-05-11T22:11:31.857Z,3.30
2023-05-11T22:13:58.320Z,2.58
2023-05-11T22:16:24.798Z,3.40
2023-05-11T22:18:51.388Z,3.57
2023-05-11T22:21:17.823Z,3.65
2023-05-11T22:23:44.290Z,4.20
2023-05-11T22:26:10.784Z,3.72
2023-05-11T22:28:37.437Z,4.45
2023-05-11T22:31:03.799Z,3.33
2023-05-11T22:33:30.522Z,3.50
2023-05-11T22:35:56.918Z,3.33
2023-05-11T22:38:23.549Z,4.10
2023-05-11T22:40:50.221Z,3.70
2023-05-11T22:43:17.139Z,3.50
2023-05-11T22:45:43.758Z,3.42
2023-05-11T22:48:10.287Z,3.22
2023-05-11T22:50:36.697Z,3.35
2023-05-11T22:53:03.174Z,3.42
2023-05-11T22:55:29.793Z,3.43
2023-05-11T22:57:56.286Z,3.58
2023-05-11T23:00:22.997Z,3.00
2023-05-11T23:02:49.703Z,3.30
2023-05-11T23:05:17.067Z,3.47
2023-05-11T23:07:43.464Z,2.33
2023-05-11T23:10:10.225Z,2.85
2023-05-11T23:12:36.685Z,2.63
2023-05-11T23:15:03.791Z,2.55
2023-05-11T23:17:30.621Z,2.70
2023-05-11T23:19:57.209Z,3.20
2023-05-11T23:22:24.546Z,2.05
2023-05-11T23:24:51.245Z,2.50
2023-05-11T23:27:26.042Z,2.25
2023-05-11T23:29:52.490Z,2.22
2023-05-11T23:32:18.889Z,1.80
2023-05-11T23:34:45.605Z,2.15
2023-05-11T23:37:12.065Z,2.78
2023-05-11T23:39:39.492Z,2.70
2023-05-11T23:42:06.508Z,2.35
2023-05-11T23:44:35.247Z,2.07
2023-05-11T23:47:02.165Z,2.30
2023-05-11T23:49:28.625Z,2.50
2023-05-11T23:51:55.505Z,2.22
2023-05-11T23:54:22.084Z,2.40
2023-05-11T23:56:48.720Z,2.80
2023-05-11T23:59:15.436Z,3.10
